Time;durP1;ratioP1;P1;durP2;ratioP2;P2;SDS_P1;SDS_P2;PMS_P1;PMS_P2;Temp;Humidity;BMP_temperature;BMP_pressure;BME280_temperature;BME280_humidity;BME280_pressure;Samples;Min_cycle;Max_cycle;Signal;HPM_P1;HPM_P2
2022/12/03 00:00:56;;;;;;;29.83;15.67;;;3.10;99.90;;;;;;5009669;28;37737;-76
2022/12/03 00:03:22;;;;;;;30.53;16.63;;;3.10;99.90;;;;;;4998206;28;36326;-76
2022/12/03 00:05:48;;;;;;;31.23;17.07;;;3.10;99.90;;;;;;5006640;28;39274;-77
2022/12/03 00:08:14;;;;;;;30.73;16.43;;;3.10;99.90;;;;;;5006488;28;37651;-76
2022/12/03 00:10:41;;;;;;;34.10;17.63;;;3.10;99.90;;;;;;5000271;28;38252;-77
2022/12/03 00:13:07;;;;;;;32.43;16.80;;;3.10;99.90;;;;;;5006330;28;37313;-77
2022/12/03 00:15:33;;;;;;;34.03;17.27;;;3.00;99.90;;;;;;5021442;28;37550;-76
2022/12/03 00:17:59;;;;;;;30.63;16.27;;;3.00;99.90;;;;;;5020526;28;39380;-76
2022/12/03 00:20:25;;;;;;;32.93;18.37;;;3.00;99.90;;;;;;5012729;28;38364;-76
2022/12/03 00:22:52;;;;;;;36.53;17.83;;;3.00;99.90;;;;;;5004493;28;36245;-77
2022/12/03 00:25:18;;;;;;;30.73;16.93;;;3.00;99.90;;;;;;4999733;28;36401;-76
2022/12/03 00:27:44;;;;;;;32.60;17.90;;;3.00;99.90;;;;;;4999461;28;39596;-75
2022/12/03 00:30:11;;;;;;;35.53;17.93;;;3.00;99.90;;;;;;5002515;28;36924;-77
2022/12/03 00:32:37;;;;;;;33.90;17.83;;;3.00;99.90;;;;;;5000675;28;36025;-77
2022/12/03 00:35:04;;;;;;;32.27;18.37;;;3.00;99.90;;;;;;4997502;28;38931;-77
2022/12/03 00:37:30;;;;;;;34.57;18.37;;;3.00;99.90;;;;;;5000983;28;48047;-76
2022/12/03 00:39:56;;;;;;;34.37;17.77;;;3.00;99.90;;;;;;5001213;28;37701;-76
2022/12/03 00:42:22;;;;;;;35.57;18.03;;;3.00;99.90;;;;;;5001503;28;37302;-75
2022/12/03 00:44:48;;;;;;;32.30;17.83;;;3.00;99.90;;;;;;5006730;28;38852;-77
2022/12/03 00:47:14;;;;;;;34.43;18.43;;;3.00;99.90;;;;;;5007871;28;38248;-76
2022/12/03 00:49:40;;;;;;;39.13;18.53;;;3.00;99.90;;;;;;5021794;28;38359;-76
2022/12/03 00:52:06;;;;;;;36.07;19.37;;;3.00;99.90;;;;;;5003123;28;37292;-77
2022/12/03 00:54:33;;;;;;;36.80;19.03;;;3.00;99.90;;;;;;5005242;28;38223;-77
2022/12/03 00:56:59;;;;;;;36.97;20.13;;;3.00;99.90;;;;;;5002520;28;37904;-77
2022/12/03 00:59:25;;;;;;;35.27;19.17;;;3.00;99.90;;;;;;5017448;28;36877;-77
2022/12/03 01:01:51;;;;;;;38.50;19.77;;;3.00;99.90;;;;;;5005148;28;37422;-76
2022/12/03 01:04:20;;;;;;;37.00;18.60;;;3.00;99.90;;;;;;5001608;28;39506;-76
2022/12/03 01:06:46;;;;;;;35.10;18.67;;;3.00;99.90;;;;;;5000801;28;38496;-76
2022/12/03 01:09:13;;;;;;;35.23;17.83;;;3.00;99.90;;;;;;5016062;28;36979;-77
2022/12/03 01:11:40;;;;;;;35.50;19.43;;;3.00;99.90;;;;;;4999189;28;38509;-76
2022/12/03 01:14:11;;;;;;;39.13;20.10;;;3.00;99.90;;;;;;4999037;28;37998;-76
2022/12/03 01:16:38;;;;;;;40.88;20.40;;;3.00;99.90;;;;;;5001105;28;39545;-77
2022/12/03 01:19:05;;;;;;;38.70;20.77;;;3.00;99.90;;;;;;5006599;28;39691;-76
2022/12/03 01:21:32;;;;;;;36.83;19.47;;;3.10;99.90;;;;;;5005733;28;36556;-76
2022/12/03 01:23:58;;;;;;;39.17;19.83;;;3.10;99.90;;;;;;5003260;28;38897;-76
2022/12/03 01:26:24;;;;;;;39.93;20.90;;;3.10;99.90;;;;;;5006526;28;39492;-76
2022/12/03 01:28:51;;;;;;;37.87;20.13;;;3.10;99.90;;;;;;5006427;28;39341;-76
2022/12/03 01:34:03;;;;;;;41.07;21.80;;;3.00;99.90;;;;;;4998371;28;40524;-74
2022/12/03 01:36:29;;;;;;;41.60;20.53;;;3.10;99.90;;;;;;5008731;28;37972;-76
2022/12/03 01:38:55;;;;;;;38.07;19.97;;;3.10;99.90;;;;;;5012689;28;36942;-76
2022/12/03 01:41:23;;;;;;;41.80;22.50;;;3.10;99.90;;;;;;5006884;28;36756;-75
2022/12/03 01:43:51;;;;;;;40.03;21.47;;;3.10;99.90;;;;;;5007300;28;38048;-76
2022/12/03 01:46:21;;;;;;;41.10;21.10;;;3.10;99.90;;;;;;5004488;28;37071;-75
2022/12/03 01:48:49;;;;;;;38.70;21.13;;;3.10;99.90;;;;;;5007709;28;36885;-75
2022/12/03 01:51:15;;;;;;;42.80;21.53;;;3.10;99.90;;;;;;5011008;28;37294;-75
2022/12/03 01:53:43;;;;;;;40.87;21.80;;;3.10;99.90;;;;;;5007871;28;38777;-76
2022/12/03 01:56:14;;;;;;;42.77;22.63;;;3.10;99.90;;;;;;5003806;28;38554;-75
2022/12/03 01:58:42;;;;;;;41.70;22.23;;;3.10;99.90;;;;;;5012448;28;37133;-76
2022/12/03 02:03:44;;;;;;;40.30;22.80;;;3.10;99.90;;;;;;3487797;22;20060;-76
2022/12/03 02:06:15;;;;;;;42.83;23.50;;;3.10;99.90;;;;;;5025150;28;39004;-76
2022/12/03 02:08:42;;;;;;;38.63;20.97;;;3.10;99.90;;;;;;5024081;28;37207;-76
2022/12/03 02:11:26;;;;;;;43.43;21.83;;;3.10;99.90;;;;;;5012355;28;36114;-76
2022/12/03 02:13:56;;;;;;;42.07;21.90;;;3.10;99.90;;;;;;4999266;28;38719;-77
2022/12/03 02:16:22;;;;;;;40.43;21.43;;;3.10;99.90;;;;;;4999930;28;34988;-76
2022/12/03 02:18:48;;;;;;;44.50;22.50;;;3.10;99.90;;;;;;5005065;28;38858;-76
2022/12/03 02:21:14;;;;;;;38.70;21.47;;;3.10;99.90;;;;;;5016455;28;37186;-76
2022/12/03 02:24:19;;;;;;;39.53;21.40;;;3.10;99.90;;;;;;5015404;28;37946;-76
2022/12/03 02:26:45;;;;;;;42.03;21.83;;;3.10;99.90;;;;;;5000620;28;46994;-76
2022/12/03 02:29:11;;;;;;;41.43;22.33;;;3.10;99.90;;;;;;5003005;28;37765;-76
2022/12/03 02:31:38;;;;;;;42.70;23.33;;;3.10;99.90;;;;;;5000197;28;37506;-75
2022/12/03 02:34:06;;;;;;;40.77;22.40;;;3.10;99.90;;;;;;5014765;28;39587;-76
2022/12/03 02:36:34;;;;;;;39.80;21.43;;;3.10;99.90;;;;;;5004454;28;38138;-76
2022/12/03 02:39:01;;;;;;;43.13;22.80;;;3.10;99.90;;;;;;5006094;28;39154;-76
2022/12/03 02:44:12;;;;;;;42.53;22.70;;;3.10;99.90;;;;;;5003706;28;40049;-77
2022/12/03 02:46:38;;;;;;;47.80;23.27;;;3.10;99.90;;;;;;5003823;28;38107;-76
2022/12/03 02:49:05;;;;;;;41.37;22.40;;;3.10;99.90;;;;;;5000279;28;37698;-76
2022/12/03 02:51:33;;;;;;;43.70;23.63;;;3.10;99.90;;;;;;5003904;28;37011;-76
2022/12/03 02:53:59;;;;;;;40.83;21.37;;;3.10;99.90;;;;;;5004279;28;38907;-76
2022/12/03 02:56:29;;;;;;;40.50;21.80;;;3.10;99.90;;;;;;5001721;28;38581;-78
2022/12/03 02:59:00;;;;;;;39.93;22.00;;;3.10;99.90;;;;;;5003208;28;37156;-76
2022/12/03 03:01:26;;;;;;;41.00;22.20;;;3.10;99.90;;;;;;5004198;28;38056;-76
2022/12/03 03:03:53;;;;;;;42.27;22.37;;;3.10;99.90;;;;;;5017574;28;37923;-76
2022/12/03 03:06:20;;;;;;;44.97;22.50;;;3.10;99.90;;;;;;5002688;28;38742;-76
2022/12/03 03:08:47;;;;;;;41.63;22.40;;;3.10;99.90;;;;;;5006007;28;38836;-76
2022/12/03 03:11:13;;;;;;;41.73;22.40;;;3.10;99.90;;;;;;5004601;28;37304;-76
2022/12/03 03:13:39;;;;;;;44.90;22.50;;;3.10;99.90;;;;;;5006282;28;38833;-76
2022/12/03 03:16:07;;;;;;;42.97;22.93;;;3.10;99.90;;;;;;5004926;28;38522;-76
2022/12/03 03:18:33;;;;;;;42.00;23.03;;;3.10;99.90;;;;;;5009459;28;38281;-75
2022/12/03 03:21:00;;;;;;;48.03;24.83;;;3.10;99.90;;;;;;5008437;28;37474;-76
2022/12/03 03:23:26;;;;;;;47.17;23.80;;;3.10;99.90;;;;;;5009083;28;38799;-75
2022/12/03 03:25:59;;;;;;;42.90;22.20;;;3.10;99.90;;;;;;5005698;28;37328;-75
2022/12/03 03:28:27;;;;;;;42.10;21.97;;;3.10;99.90;;;;;;5017835;28;37252;-76
2022/12/03 03:30:54;;;;;;;42.93;22.37;;;3.10;99.90;;;;;;5007345;28;37509;-76
2022/12/03 03:33:20;;;;;;;46.00;22.93;;;3.10;99.90;;;;;;5006125;28;39247;-76
2022/12/03 03:35:48;;;;;;;45.33;23.53;;;3.10;99.90;;;;;;5006623;28;39814;-76
2022/12/03 03:38:17;;;;;;;44.00;23.77;;;3.10;99.90;;;;;;5004783;28;37927;-77
2022/12/03 03:40:43;;;;;;;47.23;22.27;;;3.10;99.90;;;;;;5008114;28;38416;-77
2022/12/03 03:43:10;;;;;;;45.47;23.43;;;3.10;99.90;;;;;;5004168;28;40000;-76
2022/12/03 03:45:37;;;;;;;45.87;24.10;;;3.10;99.90;;;;;;5018893;28;39132;-76
2022/12/03 03:48:03;;;;;;;44.30;22.43;;;3.10;99.90;;;;;;5003203;28;37314;-76
2022/12/03 03:50:31;;;;;;;47.43;25.10;;;3.10;99.90;;;;;;5002810;28;36940;-76
2022/12/03 03:52:58;;;;;;;43.50;22.77;;;3.10;99.90;;;;;;5000792;28;38826;-75
2022/12/03 03:55:25;;;;;;;44.93;23.73;;;3.10;99.90;;;;;;5000956;28;38589;-77
2022/12/03 03:57:51;;;;;;;40.53;22.20;;;3.10;99.90;;;;;;4997620;28;37048;-75
2022/12/03 04:00:17;;;;;;;49.37;23.77;;;3.10;99.90;;;;;;5001175;28;37308;-76
2022/12/03 04:02:44;;;;;;;45.73;23.33;;;3.10;99.90;;;;;;5023267;28;37626;-75
2022/12/03 04:05:18;;;;;;;45.93;24.47;;;3.10;99.90;;;;;;5007224;28;38617;-75
2022/12/03 04:07:44;;;;;;;44.57;22.70;;;3.10;99.90;;;;;;5004958;28;38612;-75
2022/12/03 04:12:57;;;;;;;43.07;22.83;;;3.20;99.90;;;;;;5010215;28;40573;-77
2022/12/03 04:15:24;;;;;;;47.87;24.17;;;3.20;99.90;;;;;;5013971;28;37185;-77
2022/12/03 04:20:36;;;;;;;37.10;22.47;;;3.30;99.90;;;;;;5009958;28;49361;-76
2022/12/03 04:23:04;;;;;;;46.07;23.97;;;3.30;99.90;;;;;;5011109;28;39137;-76
2022/12/03 04:36:43;;;;;;;46.90;23.20;;;3.30;99.90;;;;;;5001421;28;50317;-76
2022/12/03 04:39:09;;;;;;;46.47;24.20;;;3.30;99.90;;;;;;5019286;28;37608;-76
2022/12/03 04:41:36;;;;;;;44.63;24.17;;;3.30;99.90;;;;;;5007962;28;38983;-75
2022/12/03 04:46:47;;;;;;;50.37;23.37;;;3.30;99.90;;;;;;5010499;28;49383;-76
2022/12/03 04:49:13;;;;;;;45.43;23.63;;;3.30;99.90;;;;;;5024096;28;38387;-75
2022/12/03 04:51:39;;;;;;;44.67;23.37;;;3.30;99.90;;;;;;5006790;28;38391;-76
2022/12/03 04:54:05;;;;;;;40.93;21.80;;;3.30;99.90;;;;;;5016642;28;38866;-76
2022/12/03 04:56:31;;;;;;;45.97;23.20;;;3.30;99.90;;;;;;5023609;28;37350;-76
2022/12/03 04:58:57;;;;;;;44.00;24.37;;;3.30;99.90;;;;;;5009831;28;36545;-76
2022/12/03 05:01:23;;;;;;;43.37;22.63;;;3.30;99.90;;;;;;5005799;28;36470;-76
2022/12/03 05:03:49;;;;;;;46.63;24.17;;;3.30;99.90;;;;;;5006936;28;38495;-76
2022/12/03 05:06:15;;;;;;;41.83;22.70;;;3.30;99.90;;;;;;5011985;28;39549;-76
2022/12/03 05:08:41;;;;;;;46.83;23.63;;;3.30;99.90;;;;;;5027823;28;36987;-75
2022/12/03 05:11:07;;;;;;;46.57;23.57;;;3.30;99.90;;;;;;5006333;28;36592;-77
2022/12/03 05:13:33;;;;;;;45.17;23.00;;;3.30;99.90;;;;;;5010501;28;37761;-76
2022/12/03 05:15:59;;;;;;;44.77;23.40;;;3.30;99.90;;;;;;5008757;28;38608;-76
2022/12/03 05:18:25;;;;;;;42.27;23.07;;;3.30;99.90;;;;;;5006270;28;37785;-76
2022/12/03 05:20:51;;;;;;;40.60;22.50;;;3.30;99.90;;;;;;5012494;28;37356;-76
2022/12/03 05:23:18;;;;;;;43.60;22.97;;;3.30;99.90;;;;;;5019013;28;38575;-77
2022/12/03 05:25:44;;;;;;;48.13;23.13;;;3.30;99.90;;;;;;5015037;28;39008;-76
2022/12/03 05:28:10;;;;;;;43.77;23.07;;;3.30;99.90;;;;;;5014982;28;37410;-77
2022/12/03 05:30:36;;;;;;;44.20;24.10;;;3.30;99.90;;;;;;5024534;28;37873;-77
2022/12/03 05:33:02;;;;;;;41.27;22.37;;;3.30;99.90;;;;;;5016822;28;37740;-76
2022/12/03 05:35:28;;;;;;;43.03;22.23;;;3.30;99.90;;;;;;5029383;28;38150;-76
2022/12/03 05:37:54;;;;;;;44.23;22.67;;;3.30;99.90;;;;;;5013287;28;38958;-76
2022/12/03 05:40:20;;;;;;;43.50;22.47;;;3.30;99.90;;;;;;5010219;28;38583;-75
2022/12/03 05:42:52;;;;;;;44.50;22.80;;;3.30;99.90;;;;;;5004988;28;37803;-74
2022/12/03 05:45:23;;;;;;;42.70;21.23;;;3.30;99.90;;;;;;5023120;28;37304;-77
2022/12/03 05:47:50;;;;;;;43.53;22.27;;;3.30;99.90;;;;;;5029181;28;37865;-76
2022/12/03 05:50:17;;;;;;;42.03;22.30;;;3.30;99.90;;;;;;5007714;28;37623;-77
2022/12/03 05:52:43;;;;;;;46.47;23.70;;;3.30;99.90;;;;;;5029391;28;38615;-76
2022/12/03 05:55:10;;;;;;;46.30;23.83;;;3.30;99.90;;;;;;5012988;28;38611;-76
2022/12/03 05:57:37;;;;;;;42.07;21.87;;;3.30;99.90;;;;;;5023296;28;37165;-75
2022/12/03 06:00:12;;;;;;;42.13;22.47;;;3.30;99.90;;;;;;5009889;28;38270;-76
2022/12/03 06:02:38;;;;;;;40.93;22.53;;;3.30;99.90;;;;;;5023220;28;46873;-76
2022/12/03 06:05:04;;;;;;;42.17;22.30;;;3.30;99.90;;;;;;5011767;28;37502;-76
2022/12/03 06:07:30;;;;;;;40.77;21.97;;;3.30;99.90;;;;;;5013470;28;48889;-76
2022/12/03 06:09:56;;;;;;;45.70;23.07;;;3.30;99.90;;;;;;5023718;28;36791;-77
2022/12/03 06:12:22;;;;;;;45.67;24.37;;;3.30;99.90;;;;;;5008206;28;38685;-77
2022/12/03 06:14:48;;;;;;;44.23;22.77;;;3.30;99.90;;;;;;5008687;28;38209;-77
2022/12/03 06:17:15;;;;;;;45.33;23.07;;;3.30;99.90;;;;;;5025909;28;36983;-77
2022/12/03 06:19:41;;;;;;;48.77;24.07;;;3.30;99.90;;;;;;5004515;28;36180;-76
2022/12/03 06:22:07;;;;;;;48.83;25.03;;;3.30;99.90;;;;;;5004122;28;38746;-76
2022/12/03 06:24:33;;;;;;;44.87;23.07;;;3.30;99.90;;;;;;5003162;28;38527;-77
2022/12/03 06:26:59;;;;;;;42.43;23.13;;;3.30;99.90;;;;;;5004011;28;38913;-77
2022/12/03 06:29:25;;;;;;;43.93;23.43;;;3.30;99.90;;;;;;5019727;28;36134;-77
2022/12/03 06:31:54;;;;;;;48.63;25.40;;;3.30;99.90;;;;;;5020944;28;37481;-77
2022/12/03 06:34:20;;;;;;;46.60;25.13;;;3.30;99.90;;;;;;5024479;28;37201;-77
2022/12/03 06:36:48;;;;;;;48.47;24.97;;;3.30;99.90;;;;;;5007811;28;38396;-77
2022/12/03 06:39:16;;;;;;;43.20;23.23;;;3.30;99.90;;;;;;5009337;28;38221;-77
2022/12/03 06:41:42;;;;;;;46.50;23.57;;;3.30;99.90;;;;;;5008488;28;39978;-75
2022/12/03 06:44:08;;;;;;;43.43;24.33;;;3.30;99.90;;;;;;5010809;28;41987;-76
2022/12/03 06:46:34;;;;;;;46.73;23.63;;;3.30;99.90;;;;;;5005457;28;37979;-76
2022/12/03 06:49:00;;;;;;;39.43;21.07;;;3.30;99.90;;;;;;5013221;28;37261;-76
2022/12/03 06:51:27;;;;;;;44.80;22.27;;;3.30;99.90;;;;;;5008308;28;39212;-77
2022/12/03 06:53:53;;;;;;;41.37;21.27;;;3.30;99.90;;;;;;5027490;28;40730;-77
2022/12/03 06:56:19;;;;;;;41.87;20.77;;;3.30;99.90;;;;;;5004838;28;37965;-76
2022/12/03 06:58:45;;;;;;;40.67;22.40;;;3.30;99.90;;;;;;5024567;28;36329;-76
2022/12/03 07:01:11;;;;;;;39.33;20.87;;;3.30;99.90;;;;;;5011806;28;39675;-77
2022/12/03 07:03:37;;;;;;;42.63;21.20;;;3.30;99.90;;;;;;5010699;28;39512;-76
2022/12/03 07:06:03;;;;;;;40.77;21.37;;;3.30;99.90;;;;;;5013149;28;38128;-76
2022/12/03 07:08:29;;;;;;;39.57;21.00;;;3.30;99.90;;;;;;5021045;28;36148;-77
2022/12/03 07:10:55;;;;;;;39.90;22.00;;;3.30;99.90;;;;;;5016549;28;38712;-76
2022/12/03 07:13:21;;;;;;;39.63;20.27;;;3.30;99.90;;;;;;5024823;28;38442;-76
2022/12/03 07:15:47;;;;;;;41.90;22.27;;;3.30;99.90;;;;;;5018169;28;38169;-77
2022/12/03 07:18:13;;;;;;;38.43;20.67;;;3.30;99.90;;;;;;5006288;28;37353;-76
2022/12/03 07:20:40;;;;;;;38.33;21.03;;;3.30;99.90;;;;;;5009564;28;38881;-76
2022/12/03 07:23:06;;;;;;;41.37;22.80;;;3.30;99.90;;;;;;5022822;28;38381;-76
2022/12/03 07:25:32;;;;;;;41.13;21.13;;;3.30;99.90;;;;;;5007260;28;37704;-75
2022/12/03 07:27:58;;;;;;;40.87;21.93;;;3.30;99.90;;;;;;5008593;28;37252;-76
2022/12/03 07:30:26;;;;;;;37.50;20.80;;;3.30;99.90;;;;;;5005215;28;39459;-76
2022/12/03 07:32:53;;;;;;;41.67;21.50;;;3.30;99.90;;;;;;5010853;28;38465;-76
2022/12/03 07:35:19;;;;;;;37.80;20.33;;;3.30;99.90;;;;;;5023129;28;37075;-76
2022/12/03 07:37:45;;;;;;;40.63;21.63;;;3.30;99.90;;;;;;5008429;28;36297;-77
2022/12/03 07:40:12;;;;;;;35.30;20.20;;;3.30;99.90;;;;;;5011588;28;39397;-76
2022/12/03 07:42:38;;;;;;;36.47;21.50;;;3.30;99.90;;;;;;4999947;28;38704;-76
2022/12/03 07:45:04;;;;;;;38.30;21.63;;;3.30;99.90;;;;;;5014056;28;38922;-76
2022/12/03 07:47:31;;;;;;;36.60;21.43;;;3.30;99.90;;;;;;5009439;28;37509;-76
2022/12/03 07:49:57;;;;;;;38.17;21.77;;;3.20;99.90;;;;;;5008319;28;38970;-77
2022/12/03 07:52:23;;;;;;;38.23;21.77;;;3.20;99.90;;;;;;5007748;28;37807;-76
2022/12/03 07:54:49;;;;;;;38.40;22.23;;;3.20;99.90;;;;;;5008816;28;38523;-77
2022/12/03 07:57:15;;;;;;;35.07;19.97;;;3.20;99.90;;;;;;5009276;28;34976;-77
2022/12/03 07:59:41;;;;;;;37.03;21.27;;;3.20;99.90;;;;;;5006979;28;38450;-76
2022/12/03 08:02:08;;;;;;;40.67;21.23;;;3.20;99.90;;;;;;5019504;28;37574;-77
2022/12/03 08:04:34;;;;;;;43.57;22.40;;;3.20;99.90;;;;;;5004554;28;37850;-78
2022/12/03 08:07:00;;;;;;;39.03;21.07;;;3.20;99.90;;;;;;5021521;28;36845;-77
2022/12/03 08:09:26;;;;;;;37.17;22.33;;;3.20;99.90;;;;;;5007962;28;38579;-77
2022/12/03 08:11:52;;;;;;;39.60;22.77;;;3.20;99.90;;;;;;5016495;28;38280;-77
2022/12/03 08:14:19;;;;;;;37.37;20.97;;;3.20;99.90;;;;;;5008186;28;38079;-77
2022/12/03 08:16:47;;;;;;;35.20;21.27;;;3.20;99.90;;;;;;5012371;28;37615;-78
2022/12/03 08:19:15;;;;;;;35.97;21.37;;;3.20;99.90;;;;;;5025307;28;37709;-77
2022/12/03 08:21:58;;;;;;;38.07;20.13;;;3.20;99.90;;;;;;5000041;28;20133;-77
2022/12/03 08:24:24;;;;;;;36.20;21.33;;;3.10;99.90;;;;;;5004968;28;38164;-79
2022/12/03 08:26:50;;;;;;;37.97;20.73;;;3.10;99.90;;;;;;5018243;28;36921;-76
2022/12/03 08:29:18;;;;;;;37.23;20.67;;;3.10;99.90;;;;;;5021904;28;37711;-76
2022/12/03 08:31:51;;;;;;;34.00;19.20;;;3.10;99.90;;;;;;5011991;28;37270;-75
2022/12/03 08:34:20;;;;;;;35.83;20.92;;;3.10;99.90;;;;;;5021434;28;37726;-76
2022/12/03 08:36:49;;;;;;;33.03;19.63;;;3.10;99.90;;;;;;5017097;28;37524;-76
2022/12/03 08:39:33;;;;;;;35.57;20.90;;;3.10;99.90;;;;;;5007519;28;39166;-77
2022/12/03 08:45:38;;;;;;;34.33;19.67;;;3.10;99.90;;;;;;5005633;28;49192;-79
2022/12/03 08:48:26;;;;;;;35.07;20.03;;;3.10;99.90;;;;;;5002295;28;47426;-75
2022/12/03 08:50:58;;;;;;;34.70;20.10;;;3.10;99.90;;;;;;5000850;28;38745;-76
2022/12/03 08:53:35;;;;;;;38.95;20.75;;;3.10;99.90;;;;;;5001148;28;37219;-76
2022/12/03 08:56:22;;;;;;;33.73;19.33;;;3.10;99.90;;;;;;5009150;28;36914;-76
2022/12/03 08:58:51;;;;;;;35.33;20.63;;;3.10;99.90;;;;;;5019833;28;47117;-75
2022/12/03 09:01:30;;;;;;;37.93;21.13;;;3.10;99.90;;;;;;5001044;28;39616;-75
2022/12/03 09:04:13;;;;;;;34.47;20.07;;;3.10;99.90;;;;;;5020305;28;37487;-76
2022/12/03 09:06:41;;;;;;;34.50;19.90;;;3.20;99.90;;;;;;5005299;28;48931;-75
2022/12/03 09:09:07;;;;;;;37.50;21.17;;;3.20;99.90;;;;;;5004678;28;37493;-76
2022/12/03 09:11:34;;;;;;;39.37;20.63;;;3.30;99.90;;;;;;5020501;28;37541;-75
2022/12/03 09:14:00;;;;;;;37.10;20.50;;;3.30;99.90;;;;;;5002855;28;38703;-77
2022/12/03 09:16:26;;;;;;;37.60;20.60;;;3.20;99.90;;;;;;5019854;28;37475;-77
2022/12/03 09:18:52;;;;;;;39.50;22.50;;;3.20;99.90;;;;;;5005952;28;37564;-74
2022/12/03 09:21:19;;;;;;;34.73;20.90;;;3.30;99.90;;;;;;5007876;28;37961;-75
2022/12/03 09:23:45;;;;;;;39.67;21.67;;;3.20;99.90;;;;;;5006740;28;39033;-75
2022/12/03 09:26:11;;;;;;;35.97;19.93;;;3.20;99.90;;;;;;5024040;28;37099;-77
2022/12/03 09:28:37;;;;;;;38.23;20.70;;;3.20;99.90;;;;;;5004855;28;36603;-76
2022/12/03 09:31:03;;;;;;;38.63;20.70;;;3.30;99.90;;;;;;5003440;28;38451;-75
2022/12/03 09:33:31;;;;;;;44.13;21.93;;;3.20;99.90;;;;;;5020210;28;37151;-76
2022/12/03 09:35:58;;;;;;;38.37;20.57;;;3.20;99.90;;;;;;5003762;28;38371;-75
2022/12/03 09:38:24;;;;;;;37.20;21.80;;;3.20;99.90;;;;;;5017513;28;37618;-77
2022/12/03 09:40:51;;;;;;;42.23;22.60;;;3.20;99.90;;;;;;5002263;28;38042;-75
2022/12/03 09:43:18;;;;;;;43.73;22.97;;;3.20;99.90;;;;;;5003441;28;39020;-74
2022/12/03 09:45:45;;;;;;;42.60;23.43;;;3.20;99.90;;;;;;5003087;28;37945;-76
2022/12/03 09:48:14;;;;;;;44.27;24.33;;;3.20;99.90;;;;;;4997132;28;36780;-75
2022/12/03 09:50:41;;;;;;;41.73;21.60;;;3.20;99.90;;;;;;5001634;28;37748;-74
2022/12/03 09:53:13;;;;;;;47.43;23.70;;;3.20;99.90;;;;;;5011496;28;37637;-76
2022/12/03 09:55:39;;;;;;;41.90;21.87;;;3.20;99.90;;;;;;5014971;28;37252;-77
2022/12/03 09:58:11;;;;;;;46.33;23.87;;;3.20;99.90;;;;;;5014212;28;37005;-75
2022/12/03 10:00:37;;;;;;;43.27;23.30;;;3.20;99.90;;;;;;4996103;28;39051;-74
2022/12/03 10:03:05;;;;;;;43.77;23.77;;;3.20;99.90;;;;;;4999831;28;38909;-77
2022/12/03 10:05:33;;;;;;;44.97;24.23;;;3.20;99.90;;;;;;5005847;28;37735;-76
2022/12/03 10:08:06;;;;;;;43.27;24.00;;;3.20;99.90;;;;;;5006183;28;38328;-76
2022/12/03 10:10:36;;;;;;;43.43;23.27;;;3.20;99.90;;;;;;5005493;28;48378;-75
2022/12/03 10:13:03;;;;;;;43.30;23.30;;;3.20;99.90;;;;;;5022857;28;37394;-76
2022/12/03 10:15:30;;;;;;;44.03;23.67;;;3.30;99.90;;;;;;5003330;28;47698;-75
2022/12/03 10:17:57;;;;;;;47.60;22.83;;;3.30;99.90;;;;;;5008772;28;37194;-76
2022/12/03 10:20:25;;;;;;;42.20;22.80;;;3.30;99.90;;;;;;5004706;28;38615;-76
2022/12/03 10:22:51;;;;;;;46.83;24.73;;;3.30;99.90;;;;;;5027088;28;37557;-76
2022/12/03 10:25:22;;;;;;;43.43;22.70;;;3.30;99.90;;;;;;5019394;28;37192;-75
2022/12/03 10:28:00;;;;;;;46.13;23.80;;;3.20;99.90;;;;;;5005821;28;38361;-75
2022/12/03 10:30:27;;;;;;;44.13;24.53;;;3.20;99.90;;;;;;5022997;28;37728;-76
2022/12/03 10:32:56;;;;;;;46.67;23.63;;;3.20;99.90;;;;;;5022078;28;37529;-76
2022/12/03 10:35:23;;;;;;;49.10;24.13;;;3.20;99.90;;;;;;4996960;28;38424;-76
2022/12/03 10:38:02;;;;;;;46.17;24.43;;;3.20;99.90;;;;;;5019888;28;36382;-76
2022/12/03 10:40:33;;;;;;;49.07;24.70;;;3.30;99.90;;;;;;5018390;28;46929;-76
2022/12/03 10:43:22;;;;;;;50.57;25.17;;;3.20;99.90;;;;;;4998149;28;39467;-77
2022/12/03 10:45:57;;;;;;;53.67;25.13;;;3.20;99.90;;;;;;5005505;28;48212;-76
2022/12/03 10:48:26;;;;;;;51.07;25.67;;;3.20;99.90;;;;;;5018353;28;37736;-76
2022/12/03 10:50:57;;;;;;;52.80;26.13;;;3.10;99.90;;;;;;5005844;28;38810;-77
2022/12/03 10:53:27;;;;;;;51.77;25.67;;;3.10;99.90;;;;;;4998600;28;37109;-76
2022/12/03 10:55:58;;;;;;;57.60;28.53;;;3.10;99.90;;;;;;5002726;28;38146;-76
2022/12/03 10:58:27;;;;;;;63.70;28.87;;;3.00;99.90;;;;;;5003051;28;38238;-76
2022/12/03 11:00:55;;;;;;;61.63;28.27;;;3.00;99.90;;;;;;5022255;28;39768;-76
2022/12/03 11:03:23;;;;;;;63.10;29.13;;;3.00;99.90;;;;;;5000329;28;37936;-76
2022/12/03 11:05:51;;;;;;;58.50;29.00;;;3.10;99.90;;;;;;5005285;28;36750;-75
2022/12/03 11:08:23;;;;;;;63.33;30.20;;;3.10;99.90;;;;;;4992499;28;38174;-75
2022/12/03 11:11:06;;;;;;;58.70;30.33;;;3.10;99.90;;;;;;5015144;28;37241;-76
2022/12/03 11:13:32;;;;;;;;;;;3.00;99.90;;;;;;5003122;28;48290;-75
2022/12/03 11:16:02;;;;;;;70.60;31.07;;;2.90;99.90;;;;;;5002513;28;37900;-76
2022/12/03 11:18:37;;;;;;;70.77;31.50;;;3.00;99.90;;;;;;5002364;28;36334;-76
2022/12/03 11:21:11;;;;;;;61.30;30.47;;;3.00;99.90;;;;;;5006028;28;38956;-77
2022/12/03 11:23:43;;;;;;;65.57;32.63;;;3.00;99.90;;;;;;5003604;28;37146;-75
2022/12/03 11:26:16;;;;;;;71.95;34.25;;;3.00;99.90;;;;;;5019297;28;38061;-76
2022/12/03 11:28:45;;;;;;;70.40;31.30;;;3.00;99.90;;;;;;5002942;28;36849;-79
2022/12/03 11:31:38;;;;;;;62.57;30.40;;;2.90;99.90;;;;;;5003568;28;39856;-77
2022/12/03 11:34:19;;;;;;;70.78;32.80;;;2.90;99.90;;;;;;5006709;28;36981;-78
2022/12/03 11:37:09;;;;;;;68.23;32.90;;;2.90;99.90;;;;;;5005066;28;38243;-77
2022/12/03 11:39:50;;;;;;;78.23;33.90;;;3.00;99.90;;;;;;5021557;28;47321;-78
2022/12/03 11:42:25;;;;;;;73.33;33.23;;;3.00;99.90;;;;;;5017858;28;43006;-79
2022/12/03 11:45:04;;;;;;;65.20;32.00;;;3.00;99.90;;;;;;5005418;28;38303;-77
2022/12/03 11:47:35;;;;;;;71.23;32.13;;;3.00;99.90;;;;;;5017693;28;46996;-76
2022/12/03 11:50:01;;;;;;;70.03;32.57;;;3.00;99.90;;;;;;5003295;28;37685;-79
2022/12/03 11:52:39;;;;;;;64.50;31.23;;;3.00;99.90;;;;;;5021942;28;37863;-77
2022/12/03 11:55:16;;;;;;;62.10;31.33;;;3.00;99.90;;;;;;5013866;28;38628;-77
2022/12/03 11:57:43;;;;;;;65.20;29.70;;;3.00;99.90;;;;;;5004230;28;37861;-78
2022/12/03 12:00:19;;;;;;;67.13;30.63;;;3.00;99.90;;;;;;4998637;28;36308;-76
2022/12/03 12:02:46;;;;;;;72.43;31.73;;;3.00;99.90;;;;;;5001024;28;48492;-77
2022/12/03 12:05:17;;;;;;;64.07;29.83;;;3.00;99.90;;;;;;5018192;28;37362;-78
2022/12/03 12:07:47;;;;;;;72.57;32.47;;;2.90;99.90;;;;;;5004320;28;38245;-77
2022/12/03 12:10:34;;;;;;;65.43;28.67;;;2.90;99.90;;;;;;5022685;28;36750;-77
2022/12/03 12:13:00;;;;;;;63.43;30.03;;;3.00;99.90;;;;;;5001594;28;38121;-78
2022/12/03 12:15:38;;;;;;;60.20;27.13;;;3.00;99.90;;;;;;5017766;28;37004;-77
2022/12/03 12:18:33;;;;;;;62.43;27.57;;;3.00;99.90;;;;;;5003617;28;39128;-78
2022/12/03 12:21:38;;;;;;;66.43;27.97;;;3.00;99.90;;;;;;5004086;28;37454;-77
2022/12/03 12:24:39;;;;;;;65.70;29.20;;;2.90;99.90;;;;;;4998653;28;47713;-79
2022/12/03 12:27:34;;;;;;;63.53;29.57;;;3.00;99.90;;;;;;5004381;28;38308;-78
2022/12/03 12:30:13;;;;;;;67.13;29.67;;;2.90;99.90;;;;;;5020139;28;37383;-77
2022/12/03 12:32:51;;;;;;;70.63;31.50;;;2.80;99.90;;;;;;5000754;28;47292;-78
2022/12/03 12:35:26;;;;;;;69.97;30.77;;;2.80;99.90;;;;;;5011220;28;39104;-78
2022/12/03 12:38:10;;;;;;;66.60;29.33;;;2.80;99.90;;;;;;5003634;28;39364;-76
2022/12/03 12:40:41;;;;;;;72.43;29.17;;;2.90;99.90;;;;;;5004628;28;48634;-77
2022/12/03 12:43:20;;;;;;;69.33;30.67;;;2.90;99.90;;;;;;5003335;28;36419;-78
2022/12/03 12:45:46;;;;;;;64.07;29.20;;;2.90;99.90;;;;;;5007428;28;38666;-77
2022/12/03 12:48:12;;;;;;;66.73;28.23;;;2.80;99.90;;;;;;5005642;28;37550;-77
2022/12/03 12:50:40;;;;;;;66.70;29.83;;;2.80;99.90;;;;;;5004333;28;38844;-75
2022/12/03 12:53:25;;;;;;;70.00;31.93;;;2.80;99.90;;;;;;4997773;28;38337;-78
2022/12/03 12:56:10;;;;;;;66.67;29.87;;;2.70;99.90;;;;;;4998980;28;37995;-76
2022/12/03 12:58:36;;;;;;;62.00;29.17;;;2.70;99.90;;;;;;4999805;28;47446;-77
2022/12/03 13:01:15;;;;;;;69.50;31.03;;;2.80;99.90;;;;;;4999876;28;38424;-78
2022/12/03 13:03:42;;;;;;;67.73;30.37;;;2.80;99.90;;;;;;4997946;28;48210;-78
2022/12/03 13:06:13;;;;;;;66.77;29.93;;;2.80;99.90;;;;;;4990253;28;37705;-77
2022/12/03 13:08:43;;;;;;;68.20;29.60;;;2.80;99.90;;;;;;5003194;28;37787;-79
2022/12/03 13:11:41;;;;;;;80.67;32.80;;;2.70;99.90;;;;;;5000328;28;37922;-77
2022/12/03 13:14:21;;;;;;;78.50;31.07;;;2.60;99.90;;;;;;5003264;28;37722;-76
2022/12/03 13:16:49;;;;;;;70.93;31.13;;;2.60;99.90;;;;;;5003867;28;37691;-76
2022/12/03 13:19:24;;;;;;;71.00;29.40;;;2.60;99.90;;;;;;5001765;28;39063;-77